Pagina principală
METAR-TAF:

METAR-TAF

Aeroporturi :

Catacamas, Honduras

Latitudine: 14-54N, longitudine: 085-56W, elevație: 442 m

Observații meteo curente

Raportul a fost făcut în urmă cu 15 de minute, la 15:00 UTC
Vânt calm
Temperatură 21°C
Umiditate 73%
Presiune 1019 hPa
Vizibilitate de 10 km sau mai mult
Nori puțini la o înălțime de 3000 picior

METAR: MHCA 241500Z 00000KT 9999 FEW030 21/16 Q1019

Ora: 09:15 (15:15 UTC)


TAF: lipsă

Observații și prognoze meteo pentru peste 4.000 de aeroporturi (rapoarte METAR și TAF).

Stațiile disponibile sunt reprezentate pe hartă prin puncte galbene și roșii.

Țineți indicatorul mouse-ului pe punctul dorit pentru a vedea denumirea stației.

Apoi, faceți clic pentru a vedea observațiile și prognozele meteorologice.

Pentru a schimba harta: Pentru mărire, faceți clic pe butoanele verzi cu cruce neagră; pentru micșorare, pe butonul verde cu o liniuță; pentru hărți învecinate, pe săgețile verzi.


METAR-TAF: